Time;durP1;ratioP1;P1;durP2;ratioP2;P2;SDS_P1;SDS_P2;PMS_P1;PMS_P2;Temp;Humidity;BMP_temperature;BMP_pressure;BME280_temperature;BME280_humidity;BME280_pressure;Samples;Min_cycle;Max_cycle;Signal;HPM_P1;HPM_P2
2022/12/12 05:03:47;;;;;;;13.77;7.70;;;-1.00;99.90;;;;;;6130509;23;20247;-59
2022/12/12 05:06:18;;;;;;;16.00;11.63;;;-1.00;99.90;;;;;;4955235;28;20224;-59
2022/12/12 05:08:48;;;;;;;18.42;9.65;;;-0.90;99.90;;;;;;4957282;29;20176;-59
2022/12/12 05:11:17;;;;;;;13.82;9.70;;;-0.90;99.90;;;;;;4966772;28;20542;-59
2022/12/12 05:13:43;;;;;;;13.65;9.27;;;-0.80;99.90;;;;;;4957734;28;20599;-59
2022/12/12 05:16:28;;;;;;;13.85;10.18;;;-0.90;99.90;;;;;;4956757;28;20249;-60
2022/12/12 05:18:54;;;;;;;18.55;10.45;;;-0.90;99.90;;;;;;4957115;29;20188;-59
2022/12/12 05:21:19;;;;;;;13.90;7.80;;;-0.90;99.90;;;;;;4956902;29;20262;-59
2022/12/12 05:23:45;;;;;;;16.00;11.07;;;-0.90;99.90;;;;;;4955926;29;20212;-59
2022/12/12 05:26:31;;;;;;;13.10;10.03;;;-0.90;99.90;;;;;;4956502;29;20169;-59
2022/12/12 05:28:58;;;;;;;16.63;10.88;;;-0.90;99.90;;;;;;4956763;29;20172;-59
2022/12/12 05:31:23;;;;;;;21.52;12.40;;;-0.90;99.90;;;;;;4956684;29;20181;-59
2022/12/12 05:33:49;;;;;;;19.20;9.43;;;-0.90;99.90;;;;;;4955269;29;20239;-59
2022/12/12 05:36:15;;;;;;;9.87;7.63;;;-0.90;99.90;;;;;;4956365;29;20280;-60
2022/12/12 05:38:41;;;;;;;12.40;9.60;;;-0.90;99.90;;;;;;4956088;29;20214;-60
2022/12/12 05:41:07;;;;;;;20.13;10.90;;;-0.90;99.90;;;;;;4956298;29;20257;-60
2022/12/12 05:43:33;;;;;;;16.30;9.48;;;-0.90;99.90;;;;;;4955830;29;20255;-60
2022/12/12 05:45:59;;;;;;;15.38;8.75;;;-0.90;99.90;;;;;;4955884;28;20579;-59
2022/12/12 05:48:25;;;;;;;15.13;9.13;;;-0.90;99.90;;;;;;4956225;29;20176;-60
2022/12/12 05:50:52;;;;;;;17.70;10.38;;;-0.80;99.90;;;;;;4953346;29;20413;-60
2022/12/12 05:53:18;;;;;;;12.27;9.00;;;-0.80;99.90;;;;;;4953838;29;20598;-60
2022/12/12 05:55:43;;;;;;;19.80;10.37;;;-0.80;99.90;;;;;;4954504;29;20176;-60
2022/12/12 05:58:10;;;;;;;20.83;10.60;;;-0.80;99.90;;;;;;4954502;29;20797;-61
2022/12/12 06:00:36;;;;;;;13.63;10.45;;;-0.80;99.90;;;;;;4954371;29;20177;-59
2022/12/12 06:03:01;;;;;;;13.70;8.43;;;-0.90;99.90;;;;;;4954172;29;20214;-59
2022/12/12 06:05:27;;;;;;;19.63;9.77;;;-0.80;99.90;;;;;;4954995;29;20683;-60
2022/12/12 06:07:53;;;;;;;23.40;11.70;;;-0.80;99.90;;;;;;4956178;29;20527;-60
2022/12/12 06:10:18;;;;;;;15.30;9.43;;;-0.90;99.90;;;;;;4956141;29;20173;-59
2022/12/12 06:12:44;;;;;;;15.97;8.93;;;-0.90;99.90;;;;;;4955692;29;20248;-60
2022/12/12 06:15:10;;;;;;;18.43;11.53;;;-0.90;99.90;;;;;;4955811;29;20200;-60
2022/12/12 06:17:35;;;;;;;14.07;11.52;;;-0.90;99.90;;;;;;4956114;29;20190;-60
2022/12/12 06:20:02;;;;;;;16.23;9.47;;;-0.90;99.90;;;;;;4955964;29;20177;-59
2022/12/12 06:22:28;;;;;;;14.70;8.43;;;-0.90;99.90;;;;;;4955871;29;20594;-60
2022/12/12 06:24:54;;;;;;;17.10;11.13;;;-0.90;99.90;;;;;;4956164;28;20251;-60
2022/12/12 06:27:20;;;;;;;16.03;9.50;;;-0.80;99.90;;;;;;4955905;29;20204;-60
2022/12/12 06:29:45;;;;;;;11.30;8.33;;;-0.90;99.90;;;;;;4955678;29;20255;-60
2022/12/12 06:32:11;;;;;;;19.27;9.37;;;-1.00;99.90;;;;;;4955669;29;20184;-59
2022/12/12 06:34:37;;;;;;;11.67;9.30;;;-1.00;99.90;;;;;;4955092;29;20208;-59
2022/12/12 06:37:06;;;;;;;14.13;10.25;;;-1.00;99.90;;;;;;4955756;29;20396;-58
2022/12/12 06:39:31;;;;;;;12.65;10.93;;;-1.10;99.90;;;;;;4955563;29;20177;-60
2022/12/12 06:41:57;;;;;;;16.48;9.27;;;-1.00;99.90;;;;;;4955598;29;20608;-66
2022/12/12 06:44:23;;;;;;;11.00;8.60;;;-1.00;99.90;;;;;;4955010;29;20279;-60
2022/12/12 06:46:48;;;;;;;16.80;9.00;;;-1.10;99.90;;;;;;4954057;29;20527;-61
2022/12/12 06:49:14;;;;;;;15.13;9.17;;;-1.10;99.90;;;;;;4955406;29;20623;-62
2022/12/12 06:51:43;;;;;;;10.17;7.13;;;-1.00;99.90;;;;;;4955437;29;20264;-62
2022/12/12 06:54:13;;;;;;;13.25;8.98;;;-1.00;99.90;;;;;;4954867;29;20265;-62
2022/12/12 06:56:39;;;;;;;12.48;8.60;;;-0.90;99.90;;;;;;4955470;29;20215;-62
2022/12/12 06:59:04;;;;;;;9.43;7.40;;;-0.90;99.90;;;;;;4954660;28;20187;-61
2022/12/12 07:01:31;;;;;;;10.70;6.33;;;-0.90;99.90;;;;;;4955323;29;20230;-62
2022/12/12 07:03:57;;;;;;;19.23;11.80;;;-0.90;99.90;;;;;;4953400;29;20211;-60
2022/12/12 07:06:23;;;;;;;14.45;8.73;;;-1.00;99.90;;;;;;4954950;29;20199;-62
2022/12/12 07:08:51;;;;;;;14.70;9.15;;;-1.10;99.90;;;;;;4955355;29;20193;-61
2022/12/12 07:11:23;;;;;;;13.70;9.02;;;-1.10;99.90;;;;;;4955191;29;20227;-61
2022/12/12 07:13:49;;;;;;;13.88;8.70;;;-1.10;99.90;;;;;;4954678;29;20200;-61
2022/12/12 07:16:15;;;;;;;11.02;8.02;;;-1.10;99.90;;;;;;4955139;29;20187;-61
2022/12/12 07:18:41;;;;;;;13.88;7.93;;;-1.10;99.90;;;;;;4955090;29;20179;-61
2022/12/12 07:21:10;;;;;;;18.50;10.45;;;-1.10;99.90;;;;;;4954910;29;20187;-61
2022/12/12 07:23:37;;;;;;;13.88;9.82;;;-1.10;99.90;;;;;;4954586;29;20306;-62
2022/12/12 07:26:04;;;;;;;13.68;9.73;;;-1.20;99.90;;;;;;4955023;29;20271;-62
2022/12/12 07:28:30;;;;;;;11.82;8.68;;;-1.20;99.90;;;;;;4954954;29;20547;-63
2022/12/12 07:30:56;;;;;;;14.70;10.20;;;-1.20;99.90;;;;;;4955133;29;20165;-63
2022/12/12 07:33:21;;;;;;;9.63;6.43;;;-1.10;99.90;;;;;;4954743;29;20169;-63
2022/12/12 07:35:47;;;;;;;13.23;8.50;;;-1.10;99.90;;;;;;4955204;29;20173;-63
2022/12/12 07:38:12;;;;;;;12.23;9.10;;;-1.10;99.90;;;;;;4955049;29;20237;-63
2022/12/12 07:40:38;;;;;;;15.20;8.57;;;-1.00;99.90;;;;;;4955000;29;20683;-64
2022/12/12 07:43:04;;;;;;;15.55;9.95;;;-1.00;99.90;;;;;;4954536;29;20255;-61
2022/12/12 07:45:30;;;;;;;23.53;11.40;;;-1.00;99.90;;;;;;4952730;29;20581;-63
2022/12/12 07:47:56;;;;;;;14.83;8.43;;;-1.00;99.90;;;;;;4946107;29;20184;-64
2022/12/12 07:50:22;;;;;;;20.60;9.03;;;-1.00;99.90;;;;;;4954372;29;20421;-64
2022/12/12 07:52:47;;;;;;;12.63;9.43;;;-1.00;99.90;;;;;;4954069;29;20185;-63
2022/12/12 07:55:13;;;;;;;13.67;8.90;;;-1.00;99.90;;;;;;4954144;29;20451;-64
2022/12/12 07:57:40;;;;;;;16.90;11.00;;;-1.10;99.90;;;;;;4954824;29;20651;-64
2022/12/12 08:00:08;;;;;;;12.85;8.63;;;-1.10;99.90;;;;;;4952954;28;20260;-63
2022/12/12 08:02:34;;;;;;;15.48;8.75;;;-1.00;99.90;;;;;;4951193;29;20267;-65
2022/12/12 08:04:59;;;;;;;14.60;9.60;;;-1.00;99.90;;;;;;4935530;29;20631;-61
2022/12/12 08:07:25;;;;;;;13.47;8.23;;;-0.90;99.90;;;;;;4942672;29;20188;-62
2022/12/12 08:09:51;;;;;;;18.97;9.63;;;-0.90;99.90;;;;;;4955998;28;20197;-62
2022/12/12 08:12:17;;;;;;;19.13;8.43;;;-0.80;99.90;;;;;;4958457;29;20649;-63
2022/12/12 08:14:42;;;;;;;15.17;10.40;;;-0.80;99.90;;;;;;4957552;29;20205;-64
2022/12/12 08:17:08;;;;;;;14.90;10.00;;;-0.80;99.90;;;;;;4957772;29;20179;-64
2022/12/12 08:19:33;;;;;;;13.00;8.50;;;-0.70;99.90;;;;;;4958219;29;20355;-63
2022/12/12 08:21:59;;;;;;;12.57;9.20;;;-0.70;99.90;;;;;;4945687;29;20192;-63
2022/12/12 08:24:24;;;;;;;14.17;9.70;;;-0.70;99.90;;;;;;4938317;29;20209;-64
2022/12/12 08:26:51;;;;;;;9.80;8.50;;;-0.70;99.90;;;;;;4938988;29;20221;-63
2022/12/12 08:29:17;;;;;;;15.55;9.13;;;-0.70;99.90;;;;;;4938962;29;20219;-63
2022/12/12 08:31:43;;;;;;;11.60;8.75;;;-0.70;99.90;;;;;;4944661;29;20256;-63
2022/12/12 08:34:08;;;;;;;14.10;10.60;;;-0.60;99.90;;;;;;4941578;29;20296;-65
2022/12/12 08:36:35;;;;;;;13.50;9.47;;;-0.50;99.90;;;;;;4956271;29;20668;-64
2022/12/12 08:39:09;;;;;;;13.30;9.18;;;-0.40;99.90;;;;;;4957516;29;20242;-64
2022/12/12 08:41:38;;;;;;;12.52;8.02;;;-0.20;99.90;;;;;;4956743;28;20234;-64
2022/12/12 08:44:04;;;;;;;13.20;8.55;;;-0.20;99.90;;;;;;4957807;28;20296;-65
2022/12/12 08:46:31;;;;;;;19.55;8.68;;;-0.20;99.90;;;;;;4958881;28;20175;-64
2022/12/12 08:48:56;;;;;;;20.25;11.10;;;-0.20;99.90;;;;;;4958156;28;20203;-63
2022/12/12 08:51:22;;;;;;;13.03;8.57;;;-0.20;99.90;;;;;;4944675;29;20643;-64
2022/12/12 08:53:49;;;;;;;14.53;11.43;;;-0.20;99.90;;;;;;4938751;29;20232;-64
2022/12/12 08:56:16;;;;;;;16.55;11.20;;;-0.20;99.90;;;;;;4956035;29;20200;-63
2022/12/12 08:58:42;;;;;;;18.02;9.82;;;-0.20;99.90;;;;;;4938109;29;20185;-64
2022/12/12 09:01:16;;;;;;;24.97;12.93;;;-0.10;99.90;;;;;;4938146;29;20243;-66
2022/12/12 09:03:41;;;;;;;16.42;9.68;;;0.00;99.90;;;;;;4945409;28;20858;-65
2022/12/12 09:06:09;;;;;;;19.33;8.97;;;0.00;99.90;;;;;;4957823;29;20189;-67
2022/12/12 09:08:35;;;;;;;13.63;7.63;;;0.10;99.90;;;;;;4956350;29;20188;-64
2022/12/12 09:11:01;;;;;;;20.80;10.23;;;0.30;99.90;;;;;;4957126;28;20180;-64
2022/12/12 09:13:26;;;;;;;17.10;9.83;;;0.40;99.90;;;;;;4956851;29;20731;-64
2022/12/12 09:15:52;;;;;;;11.93;10.20;;;0.50;99.90;;;;;;4951054;29;20575;-63
2022/12/12 09:18:19;;;;;;;17.33;10.33;;;0.60;99.90;;;;;;4957434;29;20169;-66
2022/12/12 09:20:49;;;;;;;16.98;10.63;;;0.70;99.90;;;;;;4956677;28;20423;-64
2022/12/12 09:23:15;;;;;;;13.75;8.23;;;0.80;99.90;;;;;;4955851;29;20205;-66
2022/12/12 09:25:40;;;;;;;12.23;7.87;;;0.90;99.90;;;;;;4956913;28;20691;-65
2022/12/12 09:28:07;;;;;;;13.20;9.70;;;1.00;99.90;;;;;;4956929;29;20419;-65
2022/12/12 09:30:32;;;;;;;12.88;8.35;;;1.00;99.90;;;;;;4956115;28;20573;-65
2022/12/12 09:32:58;;;;;;;10.63;8.93;;;0.90;99.90;;;;;;4956140;29;20185;-65
2022/12/12 09:35:23;;;;;;;14.30;9.00;;;0.90;99.90;;;;;;4956688;28;20189;-68
2022/12/12 09:37:49;;;;;;;18.97;10.80;;;1.00;99.90;;;;;;4951107;29;20196;-67
2022/12/12 09:40:17;;;;;;;13.47;8.33;;;1.00;99.90;;;;;;4956484;29;20232;-67
2022/12/12 09:42:48;;;;;;;16.50;10.02;;;1.00;99.90;;;;;;4956120;28;20180;-66
2022/12/12 09:45:15;;;;;;;16.08;10.48;;;1.00;99.90;;;;;;4958207;29;20189;-63
2022/12/12 09:47:52;;;;;;;12.02;6.65;;;0.90;99.90;;;;;;4956590;29;20168;-64
2022/12/12 09:50:38;;;;;;;9.95;6.82;;;0.90;99.90;;;;;;4956414;28;20172;-63
2022/12/12 09:53:10;;;;;;;11.35;7.50;;;0.90;99.90;;;;;;4944108;29;20719;-66
2022/12/12 09:55:48;;;;;;;10.32;8.18;;;1.00;99.90;;;;;;4937079;29;20205;-65
2022/12/12 09:58:19;;;;;;;11.52;7.80;;;1.00;99.90;;;;;;4937007;29;20204;-64
2022/12/12 10:01:10;;;;;;;11.02;6.95;;;1.00;99.90;;;;;;4936908;29;20260;-65
2022/12/12 10:03:54;;;;;;;11.73;7.57;;;1.00;99.90;;;;;;4935325;29;20592;-65
2022/12/12 10:06:22;;;;;;;9.48;7.80;;;0.90;99.90;;;;;;4936718;29;20287;-64
2022/12/12 10:08:56;;;;;;;15.52;10.45;;;0.80;99.90;;;;;;4954905;29;20185;-66
2022/12/12 10:11:50;;;;;;;14.93;8.70;;;0.80;99.90;;;;;;4956096;29;20176;-66
2022/12/12 10:14:33;;;;;;;13.48;9.15;;;1.00;99.90;;;;;;4955277;28;20230;-66
2022/12/12 10:17:02;;;;;;;17.23;9.95;;;1.50;99.90;;;;;;4955942;29;20204;-63
2022/12/12 10:19:32;;;;;;;13.35;8.25;;;2.20;99.90;;;;;;4955742;28;20186;-63
2022/12/12 10:22:07;;;;;;;11.93;8.73;;;2.90;99.90;;;;;;4955194;29;20240;-64
2022/12/12 10:24:41;;;;;;;10.38;8.20;;;3.60;99.90;;;;;;4955230;28;20206;-65
2022/12/12 10:27:12;;;;;;;11.77;7.68;;;4.20;99.90;;;;;;4955682;28;20542;-63
2022/12/12 10:29:46;;;;;;;11.32;9.07;;;4.70;99.90;;;;;;4943117;28;20177;-64
2022/12/12 10:32:47;;;;;;;13.63;10.57;;;5.00;99.90;;;;;;4945628;28;20188;-65
2022/12/12 10:35:27;;;;;;;10.68;9.02;;;5.40;99.90;;;;;;4952120;28;20197;-62
2022/12/12 10:38:17;;;;;;;14.60;8.40;;;5.90;99.90;;;;;;4944747;28;20178;-63
2022/12/12 10:41:10;;;;;;;11.05;8.70;;;6.30;98.60;;;;;;4955086;29;20181;-63
2022/12/12 10:43:51;;;;;;;14.10;9.47;;;6.60;98.70;;;;;;4955051;28;20233;-63
2022/12/12 10:46:23;;;;;;;12.63;8.13;;;6.80;96.50;;;;;;4955668;29;20414;-63
2022/12/12 10:48:50;;;;;;;9.33;7.30;;;6.70;96.10;;;;;;4954843;29;20489;-62
2022/12/12 10:51:19;;;;;;;11.57;7.70;;;6.70;96.30;;;;;;4955181;29;20401;-64
2022/12/12 10:53:44;;;;;;;10.30;8.57;;;6.60;95.70;;;;;;4954166;29;21563;-62
2022/12/12 10:56:23;;;;;;;12.20;8.00;;;6.40;95.40;;;;;;4945938;29;20189;-62
2022/12/12 10:58:57;;;;;;;12.50;10.23;;;6.20;95.50;;;;;;4943718;29;20235;-59
2022/12/12 11:01:36;;;;;;;11.60;8.35;;;6.00;95.80;;;;;;4950453;29;20603;-60
2022/12/12 11:04:04;;;;;;;10.40;8.15;;;5.80;96.30;;;;;;4935587;29;20232;-63
2022/12/12 11:06:38;;;;;;;11.18;7.43;;;5.40;96.20;;;;;;4953958;29;20611;-60
2022/12/12 11:09:14;;;;;;;12.38;8.18;;;4.90;96.40;;;;;;4955294;29;20180;-59
2022/12/12 11:11:40;;;;;;;16.55;8.77;;;4.40;96.70;;;;;;4955279;29;20651;-60
2022/12/12 11:14:27;;;;;;;12.13;8.60;;;4.00;98.10;;;;;;4953528;29;20287;-60
2022/12/12 11:16:52;;;;;;;10.07;7.30;;;3.50;98.90;;;;;;4953844;28;20266;-60
2022/12/12 11:19:23;;;;;;;15.03;8.13;;;3.10;99.90;;;;;;4953189;28;20307;-59
2022/12/12 11:21:51;;;;;;;9.10;7.93;;;2.70;99.90;;;;;;4952404;29;20670;-59
2022/12/12 11:24:42;;;;;;;10.02;6.72;;;2.50;99.90;;;;;;4954424;28;20223;-58
2022/12/12 11:27:26;;;;;;;8.35;6.30;;;2.20;99.90;;;;;;4954731;28;20173;-60
2022/12/12 11:29:56;;;;;;;10.25;7.90;;;2.00;99.90;;;;;;4955053;29;20183;-61
2022/12/12 11:32:40;;;;;;;12.80;8.23;;;1.90;99.90;;;;;;4949393;29;20205;-59
2022/12/12 11:35:21;;;;;;;10.55;7.05;;;1.90;99.90;;;;;;4935787;29;20537;-60
2022/12/12 11:37:50;;;;;;;11.90;9.25;;;1.80;99.90;;;;;;4935820;29;20656;-60
2022/12/12 11:40:29;;;;;;;11.57;9.23;;;1.70;99.90;;;;;;4935912;29;20179;-60
2022/12/12 11:43:21;;;;;;;13.50;7.65;;;1.70;99.90;;;;;;4935503;29;20517;-61
2022/12/12 11:46:13;;;;;;;8.27;6.70;;;1.60;99.90;;;;;;4940109;29;20206;-61
2022/12/12 11:48:50;;;;;;;12.27;8.77;;;1.50;99.90;;;;;;4958265;29;20176;-61
2022/12/12 11:51:31;;;;;;;7.10;6.05;;;1.40;99.90;;;;;;4958492;29;20180;-61
2022/12/12 11:53:57;;;;;;;9.50;7.55;;;1.30;99.90;;;;;;4958120;29;20235;-61
2022/12/12 11:56:44;;;;;;;11.07;8.90;;;1.20;99.90;;;;;;4958480;29;20169;-61
2022/12/12 11:59:34;;;;;;;10.45;7.07;;;1.20;99.90;;;;;;4957478;29;20953;-61
2022/12/12 12:02:29;;;;;;;12.30;7.50;;;1.30;99.90;;;;;;4958102;29;20639;-61
2022/12/12 12:05:04;;;;;;;14.25;7.97;;;1.30;99.90;;;;;;4957876;29;20221;-61
2022/12/12 12:07:55;;;;;;;10.82;6.55;;;1.30;99.90;;;;;;4958090;28;20546;-60
2022/12/12 12:10:33;;;;;;;13.43;8.32;;;1.40;99.90;;;;;;4958127;29;20231;-60
2022/12/12 12:13:38;;;;;;;12.23;8.60;;;1.40;99.90;;;;;;4957676;29;20207;-61
2022/12/12 12:16:14;;;;;;;9.13;7.18;;;1.40;99.90;;;;;;4957729;29;20207;-61
2022/12/12 12:19:14;;;;;;;13.95;7.93;;;1.40;99.90;;;;;;4971667;28;20179;-61
2022/12/12 12:21:54;;;;;;;12.48;8.80;;;1.30;99.90;;;;;;4957819;28;20173;-60
2022/12/12 12:24:31;;;;;;;18.52;8.48;;;1.30;99.90;;;;;;4954895;28;20211;-60
2022/12/12 12:27:11;;;;;;;13.02;7.50;;;1.30;99.90;;;;;;4938797;29;20686;-60
2022/12/12 12:30:02;;;;;;;12.15;7.95;;;1.40;99.90;;;;;;4952633;29;20176;-60
2022/12/12 12:32:46;;;;;;;12.07;6.85;;;1.50;99.90;;;;;;4958019;29;20173;-59
2022/12/12 12:35:31;;;;;;;10.27;8.40;;;1.50;99.90;;;;;;4957910;29;20259;-61
2022/12/12 12:38:18;;;;;;;13.70;7.65;;;1.50;99.90;;;;;;4945629;29;20497;-60
2022/12/12 12:41:12;;;;;;;13.68;8.25;;;1.40;99.90;;;;;;4944045;29;20173;-61
2022/12/12 12:43:55;;;;;;;15.10;10.70;;;1.40;99.90;;;;;;4956533;28;20291;-60
2022/12/12 12:46:27;;;;;;;21.23;9.80;;;1.40;99.90;;;;;;4938683;29;20191;-60
2022/12/12 12:48:58;;;;;;;12.75;7.70;;;1.40;99.90;;;;;;4939269;29;20182;-60
2022/12/12 12:51:39;;;;;;;11.65;7.03;;;1.40;99.90;;;;;;4957117;29;20236;-62
2022/12/12 12:54:44;;;;;;;12.73;6.82;;;1.50;99.90;;;;;;4955101;29;20208;-59
2022/12/12 12:57:23;;;;;;;8.05;7.22;;;1.50;99.90;;;;;;4955882;28;20235;-59
2022/12/12 12:59:52;;;;;;;9.38;6.82;;;1.60;99.90;;;;;;4952185;28;20181;-60
2022/12/12 13:02:29;;;;;;;8.00;7.20;;;1.60;99.90;;;;;;4957440;29;20181;-60
2022/12/12 13:05:07;;;;;;;10.10;6.05;;;1.60;99.90;;;;;;4956691;28;20214;-60
2022/12/12 13:07:40;;;;;;;15.68;9.98;;;1.60;99.90;;;;;;4957419;29;20531;-60
2022/12/12 13:10:14;;;;;;;9.30;8.15;;;1.60;99.90;;;;;;4957125;29;20208;-61
2022/12/12 13:13:03;;;;;;;7.78;6.88;;;1.70;99.90;;;;;;4952471;29;20595;-60
2022/12/12 13:15:52;;;;;;;16.42;9.52;;;1.70;99.90;;;;;;4956881;28;20204;-60
2022/12/12 13:18:18;;;;;;;14.90;7.78;;;1.70;99.90;;;;;;4947940;29;20244;-61
2022/12/12 13:20:57;;;;;;;13.73;8.50;;;1.70;99.90;;;;;;4936728;29;20173;-60
2022/12/12 13:23:40;;;;;;;15.63;9.65;;;1.70;99.90;;;;;;4954931;28;20296;-60
2022/12/12 13:26:21;;;;;;;17.80;9.55;;;1.70;99.90;;;;;;4956836;29;20536;-59
2022/12/12 13:28:56;;;;;;;11.38;7.28;;;1.70;99.90;;;;;;4956944;29;20177;-59
2022/12/12 13:31:43;;;;;;;16.15;9.70;;;1.70;99.90;;;;;;4946336;28;20173;-61
2022/12/12 13:34:17;;;;;;;10.95;9.07;;;1.70;99.90;;;;;;4937051;29;20284;-61
2022/12/12 13:36:49;;;;;;;11.65;7.53;;;1.70;99.90;;;;;;4940133;29;20272;-61
2022/12/12 13:39:33;;;;;;;8.35;7.13;;;1.70;99.90;;;;;;4956610;29;20188;-61
2022/12/12 13:42:03;;;;;;;16.35;9.52;;;1.80;99.90;;;;;;4952824;29;20217;-61
2022/12/12 13:44:39;;;;;;;14.52;7.90;;;1.80;99.90;;;;;;4946806;28;20208;-61
2022/12/12 13:47:23;;;;;;;8.57;5.90;;;2.00;99.90;;;;;;4956642;28;20531;-61
2022/12/12 13:50:05;;;;;;;9.20;6.60;;;2.00;99.90;;;;;;4956487;28;20243;-60
2022/12/12 13:52:41;;;;;;;13.55;8.35;;;2.00;99.90;;;;;;4955623;29;20309;-61
2022/12/12 13:55:12;;;;;;;10.50;9.40;;;2.00;99.90;;;;;;4956335;28;20204;-60
2022/12/12 13:57:56;;;;;;;10.43;7.18;;;2.00;99.90;;;;;;4956384;29;20255;-58
2022/12/12 14:00:26;;;;;;;11.80;7.68;;;2.10;99.90;;;;;;4952149;29;20219;-59
2022/12/12 14:02:57;;;;;;;12.32;7.05;;;2.10;99.90;;;;;;4955628;29;20177;-61
2022/12/12 14:05:34;;;;;;;9.20;6.97;;;2.20;99.90;;;;;;4948781;29;20221;-60
2022/12/12 14:08:06;;;;;;;12.48;9.43;;;2.20;99.90;;;;;;4954321;28;20185;-59
2022/12/12 14:10:40;;;;;;;10.07;8.05;;;2.20;99.90;;;;;;4955344;28;20181;-60
2022/12/12 14:13:25;;;;;;;10.80;7.15;;;2.30;99.90;;;;;;4955559;29;20223;-60
2022/12/12 14:15:56;;;;;;;8.82;6.38;;;2.30;99.90;;;;;;4956023;29;20183;-60
2022/12/12 14:18:39;;;;;;;8.50;6.30;;;2.30;99.90;;;;;;4956289;29;20184;-60
2022/12/12 14:21:13;;;;;;;9.07;6.63;;;2.30;99.90;;;;;;4954742;29;20625;-61
2022/12/12 14:23:47;;;;;;;13.27;8.57;;;2.30;99.90;;;;;;4955408;28;20203;-58
2022/12/12 14:26:28;;;;;;;7.97;5.97;;;2.20;99.90;;;;;;4955630;29;20263;-59
2022/12/12 14:29:15;;;;;;;13.70;7.90;;;2.20;99.90;;;;;;4955827;29;20674;-60
2022/12/12 14:31:43;;;;;;;8.35;5.78;;;2.20;99.90;;;;;;4955790;29;20516;-60
2022/12/12 14:34:37;;;;;;;10.65;6.60;;;2.10;99.90;;;;;;4955210;28;20196;-61
2022/12/12 14:37:14;;;;;;;11.05;7.50;;;2.00;99.90;;;;;;4956073;29;20259;-60
2022/12/12 14:39:54;;;;;;;10.98;6.63;;;2.00;99.90;;;;;;4954024;29;20208;-61
2022/12/12 14:42:44;;;;;;;11.10;7.18;;;2.10;99.90;;;;;;4955555;28;20227;-60
2022/12/12 14:45:48;;;;;;;10.85;6.90;;;2.10;99.90;;;;;;4954146;28;20544;-59
2022/12/12 14:48:24;;;;;;;12.40;7.78;;;2.10;99.90;;;;;;4944720;29;20181;-60
2022/12/12 14:50:56;;;;;;;9.38;7.07;;;2.00;99.90;;;;;;4955592;29;20164;-59
2022/12/12 14:53:25;;;;;;;10.30;6.78;;;2.00;99.90;;;;;;4954941;29;20165;-59
2022/12/12 14:56:00;;;;;;;7.05;4.70;;;1.90;99.90;;;;;;4955145;28;20180;-59
2022/12/12 14:58:29;;;;;;;6.72;5.68;;;1.80;99.90;;;;;;4955437;29;20184;-59
2022/12/12 15:01:00;;;;;;;9.23;5.38;;;1.80;99.90;;;;;;4955511;29;20259;-59
2022/12/12 15:03:40;;;;;;;5.55;4.93;;;1.80;99.90;;;;;;4954887;29;20639;-59
2022/12/12 15:06:31;;;;;;;8.05;6.25;;;1.80;99.90;;;;;;4955108;28;20194;-59
2022/12/12 15:09:06;;;;;;;9.75;6.00;;;1.70;99.90;;;;;;4954930;29;20668;-59
2022/12/12 15:11:32;;;;;;;4.20;3.90;;;1.60;99.90;;;;;;4954516;29;20176;-59
2022/12/12 15:14:00;;;;;;;6.63;5.87;;;1.50;99.90;;;;;;4954690;29;20717;-59
2022/12/12 15:16:49;;;;;;;6.38;4.80;;;1.40;99.90;;;;;;4954848;29;20231;-59
2022/12/12 15:19:18;;;;;;;8.73;6.00;;;1.30;99.90;;;;;;4955630;28;20192;-59
2022/12/12 15:21:45;;;;;;;7.57;6.32;;;1.20;99.90;;;;;;4958916;28;20191;-61
2022/12/12 15:24:22;;;;;;;5.55;4.80;;;1.20;99.90;;;;;;4958415;28;20207;-60
2022/12/12 15:26:51;;;;;;;9.90;6.47;;;1.10;99.90;;;;;;4956472;29;20187;-60
2022/12/12 15:29:20;;;;;;;7.82;6.07;;;1.10;99.90;;;;;;4957166;29;20173;-60
2022/12/12 15:31:57;;;;;;;12.00;7.10;;;1.00;99.90;;;;;;4958877;29;20194;-61
2022/12/12 15:34:39;;;;;;;8.65;6.10;;;0.90;99.90;;;;;;4958010;28;20263;-60
2022/12/12 15:37:16;;;;;;;15.00;6.55;;;0.90;99.90;;;;;;4959496;28;20604;-61
2022/12/12 15:39:43;;;;;;;6.35;5.75;;;0.90;99.90;;;;;;4958937;29;20527;-60
2022/12/12 15:42:12;;;;;;;9.48;5.78;;;0.80;99.90;;;;;;4958723;29;20195;-60
2022/12/12 15:44:40;;;;;;;6.82;5.97;;;0.70;99.90;;;;;;4958357;29;20211;-60
2022/12/12 15:47:11;;;;;;;9.85;6.65;;;0.70;99.90;;;;;;4958919;29;20183;-60
2022/12/12 15:49:42;;;;;;;14.52;6.05;;;0.60;99.90;;;;;;4958597;28;20536;-60
2022/12/12 15:52:09;;;;;;;7.88;7.03;;;0.50;99.90;;;;;;4958485;29;20227;-60
2022/12/12 15:54:35;;;;;;;12.15;7.22;;;0.50;99.90;;;;;;4939436;29;20750;-60
2022/12/12 15:57:00;;;;;;;10.87;7.00;;;0.40;99.90;;;;;;4939452;29;20321;-60
2022/12/12 15:59:31;;;;;;;7.23;5.43;;;0.30;99.90;;;;;;4938040;29;20173;-60
2022/12/12 16:02:22;;;;;;;11.50;6.85;;;0.30;99.90;;;;;;4939035;29;20192;-60
2022/12/12 16:05:14;;;;;;;11.23;6.70;;;0.20;99.90;;;;;;4963754;28;20212;-60
2022/12/12 16:07:40;;;;;;;14.15;8.68;;;0.10;99.90;;;;;;4938341;29;20174;-61
2022/12/12 16:10:14;;;;;;;8.83;4.93;;;0.10;99.90;;;;;;4949125;29;20669;-60
2022/12/12 16:13:02;;;;;;;8.63;7.72;;;0.00;99.90;;;;;;4957593;29;20177;-59
2022/12/12 16:15:33;;;;;;;10.27;7.47;;;0.00;99.90;;;;;;4957779;29;20208;-60
2022/12/12 16:18:13;;;;;;;8.25;6.30;;;-0.10;99.90;;;;;;4957621;29;20181;-60
2022/12/12 16:20:47;;;;;;;10.32;6.78;;;-0.10;99.90;;;;;;4953755;29;20184;-60
2022/12/12 16:23:19;;;;;;;11.18;8.45;;;-0.10;99.90;;;;;;4957770;28;20180;-60
2022/12/12 16:25:45;;;;;;;12.82;8.70;;;-0.10;99.90;;;;;;4959919;29;20187;-59
2022/12/12 16:28:26;;;;;;;8.83;7.70;;;-0.20;99.90;;;;;;4958002;28;20180;-60
2022/12/12 16:30:55;;;;;;;11.07;6.88;;;-0.20;99.90;;;;;;4957746;28;20176;-60
2022/12/12 16:33:34;;;;;;;10.75;6.55;;;-0.30;99.90;;;;;;4957050;28;20187;-61
2022/12/12 16:36:09;;;;;;;15.75;7.85;;;-0.30;99.90;;;;;;4957673;29;20194;-59
2022/12/12 16:38:35;;;;;;;12.18;6.85;;;-0.30;99.90;;;;;;4957665;29;20251;-60
2022/12/12 16:41:07;;;;;;;10.50;7.20;;;-0.30;99.90;;;;;;4957776;29;20217;-59
2022/12/12 16:43:33;;;;;;;9.77;5.90;;;-0.30;99.90;;;;;;4957096;28;20210;-59
2022/12/12 16:45:59;;;;;;;9.13;8.20;;;-0.30;99.90;;;;;;4957189;29;20768;-58
2022/12/12 16:48:33;;;;;;;11.73;6.10;;;-0.30;99.90;;;;;;4957170;28;20183;-60
2022/12/12 16:51:07;;;;;;;15.63;7.45;;;-0.40;99.90;;;;;;4957280;29;20191;-60
2022/12/12 16:53:34;;;;;;;10.32;6.20;;;-0.40;99.90;;;;;;4953340;29;20193;-58
2022/12/12 16:56:00;;;;;;;8.57;7.13;;;-0.40;99.90;;;;;;4957450;29;20184;-61
2022/12/12 16:58:25;;;;;;;13.10;8.57;;;-0.40;99.90;;;;;;4957405;29;20198;-59
2022/12/12 17:00:51;;;;;;;19.30;8.13;;;-0.50;99.90;;;;;;4957373;29;20505;-59
2022/12/12 17:03:18;;;;;;;11.77;7.10;;;-0.60;99.90;;;;;;4956607;29;20211;-59
2022/12/12 17:05:45;;;;;;;10.88;8.18;;;-0.60;99.90;;;;;;4956987;29;20193;-59
2022/12/12 17:08:11;;;;;;;13.98;8.77;;;-0.70;99.90;;;;;;4956933;29;20265;-59
2022/12/12 17:10:38;;;;;;;12.98;7.80;;;-0.70;99.90;;;;;;4956965;28;20193;-60
2022/12/12 17:13:05;;;;;;;13.80;8.85;;;-0.70;99.90;;;;;;4971444;28;20177;-59
2022/12/12 17:15:32;;;;;;;13.60;7.45;;;-0.70;99.90;;;;;;4956795;29;20242;-59
2022/12/12 17:17:57;;;;;;;12.68;9.10;;;-0.70;99.90;;;;;;4956758;28;20634;-61
2022/12/12 17:20:25;;;;;;;13.60;8.03;;;-0.80;99.90;;;;;;4957165;29;20196;-64
2022/12/12 17:22:51;;;;;;;9.18;7.72;;;-0.80;99.90;;;;;;4952152;29;20277;-59
2022/12/12 17:25:17;;;;;;;14.63;8.63;;;-0.90;99.90;;;;;;4937595;29;20216;-60
2022/12/12 17:27:43;;;;;;;13.32;6.90;;;-1.00;99.90;;;;;;4937641;29;20177;-60
2022/12/12 17:30:10;;;;;;;11.63;6.83;;;-1.00;99.90;;;;;;4940676;29;20580;-59
2022/12/12 17:32:37;;;;;;;14.25;7.35;;;-1.00;99.90;;;;;;4950440;28;20459;-59
2022/12/12 17:35:04;;;;;;;9.55;7.18;;;-1.00;99.90;;;;;;4938928;28;20206;-60
2022/12/12 17:37:30;;;;;;;12.07;7.80;;;-1.10;99.90;;;;;;4937428;29;20544;-60
2022/12/12 17:39:56;;;;;;;10.55;5.60;;;-1.10;99.90;;;;;;4950495;29;20201;-59
2022/12/12 17:42:21;;;;;;;10.60;6.07;;;-1.20;99.90;;;;;;4955920;28;20181;-58
2022/12/12 17:44:48;;;;;;;9.07;6.43;;;-1.20;99.90;;;;;;4955868;28;20833;-61
2022/12/12 17:47:14;;;;;;;12.30;7.70;;;-1.20;99.90;;;;;;4956330;29;20274;-60
2022/12/12 17:49:39;;;;;;;10.00;8.43;;;-1.30;99.90;;;;;;4956280;28;20217;-60
2022/12/12 17:52:05;;;;;;;8.60;5.43;;;-1.30;99.90;;;;;;4956182;29;20259;-60
2022/12/12 17:54:32;;;;;;;10.27;6.77;;;-1.30;99.90;;;;;;4953995;29;20213;-62
2022/12/12 17:56:58;;;;;;;9.30;7.13;;;-1.30;99.90;;;;;;4952432;29;20180;-59
2022/12/12 17:59:23;;;;;;;9.97;6.73;;;-1.30;99.90;;;;;;4955885;29;20555;-60
2022/12/12 18:01:52;;;;;;;9.50;6.30;;;-1.30;99.90;;;;;;4955746;29;20183;-59
2022/12/12 18:04:20;;;;;;;14.43;9.32;;;-1.30;99.90;;;;;;4955340;28;20227;-60
2022/12/12 18:06:46;;;;;;;14.65;6.85;;;-1.40;99.90;;;;;;4955924;28;20542;-60
2022/12/12 18:09:12;;;;;;;12.97;5.57;;;-1.30;99.90;;;;;;4956015;29;20206;-61
2022/12/12 18:11:38;;;;;;;16.17;7.60;;;-1.40;99.90;;;;;;4956206;29;20197;-60